Jurien, Australia
Current Conditions -  °F | °C
As of 5:00 PM on Friday 31 Oct 2014 (Local Time) from YGEL Reporting Station
Clear Clear  
Wind Chill: 72°   Ceiling: Unl
Heat Index: 72°   Visibility: 6mi
Dew Point: 57°   Wind: 16mph
Humidity: 60%   Direction: 190°S
Pressure: 29.97"   Gusts: NA
Location:  30.31°S, 115.03°E
Report Text: YGEL 310900Z AUTO 19014KT 9999 // NCD 22/14 Q1015
Loading
Personal Weather Stations






























Interactive Weather Map
Tropical Storm Tracking
New forecast layout! Learn more

10-Day Weather Forecast

Advertisements
Track Severe Weather on mobile